Time;durP1;ratioP1;P1;durP2;ratioP2;P2;SDS_P1;SDS_P2;PMS_P1;PMS_P2;Temp;Humidity;BMP_temperature;BMP_pressure;BME280_temperature;BME280_humidity;BME280_pressure;Samples;Min_cycle;Max_cycle;Signal;HPM_P1;HPM_P2
2024/04/11 00:00:47;;;;;;;;;3.00;1.00;;;;;;;;5413306;26;8839;-76
2024/04/11 00:03:12;;;;;;;;;2.50;2.00;;;;;;;;5412931;26;8822;-76
2024/04/11 00:05:39;;;;;;;;;4.00;1.00;;;;;;;;5413052;26;11482;-75
2024/04/11 00:08:05;;;;;;;;;4.25;2.00;;;;;;;;5412798;26;8846;-75
2024/04/11 00:10:30;;;;;;;;;1.00;1.00;;;;;;;;5412881;26;11572;-74
2024/04/11 00:12:55;;;;;;;;;1.25;1.25;;;;;;;;5413235;26;11480;-74
2024/04/11 00:15:21;;;;;;;;;5.25;0.50;;;;;;;;5412765;26;8876;-75
2024/04/11 00:17:46;;;;;;;;;1.00;1.00;;;;;;;;5412598;26;8822;-75
2024/04/11 00:20:11;;;;;;;;;1.50;1.50;;;;;;;;5412421;26;8838;-75
2024/04/11 00:22:36;;;;;;;;;2.25;1.25;;;;;;;;5412797;26;8830;-74
2024/04/11 00:25:02;;;;;;;;;1.00;1.00;;;;;;;;5412807;26;8854;-75
2024/04/11 00:27:27;;;;;;;;;1.00;1.00;;;;;;;;5412464;26;8864;-75
2024/04/11 00:29:53;;;;;;;;;5.50;1.75;;;;;;;;5412621;26;8857;-75
2024/04/11 00:32:18;;;;;;;;;1.00;1.00;;;;;;;;5412361;26;8878;-74
2024/04/11 00:34:43;;;;;;;;;0.75;0.75;;;;;;;;5416109;26;8896;-75
2024/04/11 00:37:11;;;;;;;;;1.75;1.00;;;;;;;;5415759;26;8863;-75
2024/04/11 00:39:36;;;;;;;;;2.00;1.00;;;;;;;;5416023;26;8854;-76
2024/04/11 00:42:02;;;;;;;;;1.00;1.00;;;;;;;;5416359;26;11526;-75
2024/04/11 00:44:29;;;;;;;;;2.00;0.25;;;;;;;;5416079;26;8851;-75
2024/04/11 00:46:55;;;;;;;;;1.00;0.00;;;;;;;;5416024;26;8846;-75
2024/04/11 00:49:21;;;;;;;;;2.00;1.00;;;;;;;;5416171;26;11476;-74
2024/04/11 00:51:47;;;;;;;;;0.50;0.00;;;;;;;;5413956;26;8849;-75
2024/04/11 00:54:15;;;;;;;;;3.00;1.00;;;;;;;;5414150;26;11374;-75
2024/04/11 00:56:41;;;;;;;;;0.75;0.75;;;;;;;;5415558;26;9496;-75
2024/04/11 00:59:09;;;;;;;;;1.00;1.00;;;;;;;;5413478;26;11502;-75
2024/04/11 01:01:35;;;;;;;;;0.00;0.00;;;;;;;;5415711;26;8839;-75
2024/04/11 01:04:03;;;;;;;;;2.25;1.00;;;;;;;;5415626;26;11581;-76
2024/04/11 01:07:07;;;;;;;;;0.00;0.00;;;;;;;;5415628;26;8827;-75
2024/04/11 01:09:34;;;;;;;;;2.00;1.25;;;;;;;;5415559;26;11480;-76
2024/04/11 01:12:00;;;;;;;;;1.75;1.00;;;;;;;;5415098;26;11617;-75
2024/04/11 01:14:25;;;;;;;;;2.00;0.50;;;;;;;;5415091;26;11568;-75
2024/04/11 01:16:50;;;;;;;;;1.75;0.00;;;;;;;;5415247;26;11471;-75
2024/04/11 01:19:16;;;;;;;;;1.75;0.50;;;;;;;;5415472;26;8885;-76
2024/04/11 01:21:41;;;;;;;;;2.00;0.00;;;;;;;;5415040;26;8897;-75
2024/04/11 01:24:07;;;;;;;;;2.75;1.50;;;;;;;;5415623;26;8915;-75
2024/04/11 01:26:33;;;;;;;;;0.00;0.00;;;;;;;;5443477;26;8791;-75
2024/04/11 01:28:58;;;;;;;;;2.25;1.25;;;;;;;;5415714;26;8916;-76
2024/04/11 01:31:23;;;;;;;;;1.75;0.00;;;;;;;;5414952;26;8854;-76
2024/04/11 01:33:50;;;;;;;;;1.00;0.00;;;;;;;;5415062;26;8822;-75
2024/04/11 01:36:16;;;;;;;;;3.50;1.00;;;;;;;;5415363;26;8827;-75
2024/04/11 01:38:42;;;;;;;;;0.00;0.00;;;;;;;;5442927;26;11572;-75
2024/04/11 01:41:08;;;;;;;;;0.00;0.00;;;;;;;;5414793;26;11488;-75
2024/04/11 01:43:34;;;;;;;;;2.50;1.00;;;;;;;;5414167;26;11591;-75
2024/04/11 01:46:00;;;;;;;;;1.00;0.00;;;;;;;;5414963;26;8902;-75
2024/04/11 01:48:25;;;;;;;;;1.75;1.25;;;;;;;;5414898;26;12296;-75
2024/04/11 01:50:53;;;;;;;;;2.00;1.50;;;;;;;;5414853;26;8874;-75
2024/04/11 01:53:18;;;;;;;;;1.00;1.00;;;;;;;;5414649;26;8839;-75
2024/04/11 01:55:44;;;;;;;;;2.50;0.00;;;;;;;;5414856;26;11622;-74
2024/04/11 01:58:11;;;;;;;;;0.25;0.25;;;;;;;;5414777;26;8890;-74
2024/04/11 02:00:37;;;;;;;;;1.50;1.00;;;;;;;;5414975;26;8807;-74
2024/04/11 02:03:04;;;;;;;;;2.75;1.00;;;;;;;;5414688;26;11516;-74
2024/04/11 02:05:30;;;;;;;;;5.00;1.00;;;;;;;;5413873;26;8891;-75
2024/04/11 02:07:55;;;;;;;;;5.75;1.00;;;;;;;;5412566;26;11502;-74
2024/04/11 02:10:20;;;;;;;;;2.00;1.00;;;;;;;;5414517;26;8822;-75
2024/04/11 02:12:46;;;;;;;;;2.75;1.00;;;;;;;;5414557;26;8849;-74
2024/04/11 02:15:14;;;;;;;;;2.25;0.50;;;;;;;;5414522;26;9591;-75
2024/04/11 02:17:40;;;;;;;;;1.50;1.00;;;;;;;;5414507;26;8815;-74
2024/04/11 02:20:10;;;;;;;;;1.25;0.50;;;;;;;;5414788;26;11739;-75
2024/04/11 02:22:36;;;;;;;;;2.00;2.00;;;;;;;;5414606;26;8834;-75
2024/04/11 02:25:01;;;;;;;;;1.00;1.00;;;;;;;;5414545;26;11481;-75
2024/04/11 02:27:27;;;;;;;;;1.25;0.25;;;;;;;;5414707;26;11549;-75
2024/04/11 02:29:52;;;;;;;;;1.00;1.00;;;;;;;;5414617;26;8862;-75
2024/04/11 02:32:17;;;;;;;;;1.50;1.00;;;;;;;;5414433;26;9696;-75
2024/04/11 02:34:43;;;;;;;;;1.00;1.00;;;;;;;;5414467;26;8799;-75
2024/04/11 02:37:08;;;;;;;;;2.00;2.00;;;;;;;;5413999;26;8826;-74
2024/04/11 02:39:33;;;;;;;;;2.00;2.00;;;;;;;;5414669;26;8853;-74
2024/04/11 02:42:00;;;;;;;;;4.75;3.00;;;;;;;;5414132;26;8897;-75
2024/04/11 02:44:25;;;;;;;;;4.50;3.50;;;;;;;;5412172;26;8845;-75
2024/04/11 02:46:50;;;;;;;;;2.75;2.75;;;;;;;;5414244;26;11547;-75
2024/04/11 02:49:15;;;;;;;;;3.00;3.00;;;;;;;;5414336;26;8903;-75
2024/04/11 02:51:41;;;;;;;;;3.75;3.00;;;;;;;;5412009;26;8850;-74
2024/04/11 02:54:07;;;;;;;;;6.50;3.75;;;;;;;;5414110;26;8814;-75
2024/04/11 02:56:32;;;;;;;;;3.00;2.75;;;;;;;;5412489;26;8842;-76
2024/04/11 02:58:58;;;;;;;;;3.25;3.00;;;;;;;;5414379;26;11617;-74
2024/04/11 03:01:25;;;;;;;;;3.00;2.50;;;;;;;;5412086;26;8826;-74
2024/04/11 03:03:53;;;;;;;;;1.75;1.75;;;;;;;;5413610;26;12239;-74
2024/04/11 03:06:21;;;;;;;;;3.25;2.00;;;;;;;;5413351;26;11512;-74
2024/04/11 03:08:50;;;;;;;;;4.50;3.75;;;;;;;;5376514;26;11706;-75
2024/04/11 03:11:15;;;;;;;;;4.75;3.25;;;;;;;;5377915;26;11600;-75
2024/04/11 03:13:41;;;;;;;;;2.00;2.00;;;;;;;;5378175;26;12389;-75
2024/04/11 03:16:11;;;;;;;;;6.00;2.25;;;;;;;;5378181;26;9142;-75
2024/04/11 03:18:39;;;;;;;;;5.00;4.00;;;;;;;;5378670;26;8839;-74
2024/04/11 03:21:05;;;;;;;;;5.75;2.75;;;;;;;;5376597;26;11511;-75
2024/04/11 03:23:31;;;;;;;;;2.00;2.00;;;;;;;;5377683;26;11640;-75
2024/04/11 03:25:56;;;;;;;;;4.75;3.25;;;;;;;;5377859;26;11515;-75
2024/04/11 03:28:22;;;;;;;;;5.00;4.00;;;;;;;;5378079;26;8838;-75
2024/04/11 03:30:55;;;;;;;;;4.25;2.00;;;;;;;;5377892;26;8819;-75
2024/04/11 03:33:21;;;;;;;;;4.25;3.00;;;;;;;;5378041;26;11511;-75
2024/04/11 03:35:53;;;;;;;;;5.50;3.50;;;;;;;;5377961;26;12296;-74
2024/04/11 03:38:18;;;;;;;;;5.25;3.25;;;;;;;;5406925;26;8847;-74
2024/04/11 03:40:53;;;;;;;;;5.00;5.00;;;;;;;;5413521;26;12349;-74
2024/04/11 03:43:19;;;;;;;;;5.00;4.50;;;;;;;;5413452;26;8826;-74
2024/04/11 03:45:44;;;;;;;;;5.50;5.25;;;;;;;;5413399;26;11585;-74
2024/04/11 03:48:09;;;;;;;;;5.50;5.50;;;;;;;;5413263;26;8843;-74
2024/04/11 03:50:35;;;;;;;;;4.75;4.75;;;;;;;;5413316;26;8850;-74
2024/04/11 03:53:01;;;;;;;;;2.25;2.00;;;;;;;;5411275;26;8853;-74
2024/04/11 03:55:26;;;;;;;;;5.00;5.00;;;;;;;;5410637;26;11499;-74
2024/04/11 03:57:52;;;;;;;;;4.75;3.00;;;;;;;;5412943;26;8894;-74
2024/04/11 04:00:17;;;;;;;;;4.00;3.75;;;;;;;;5441251;26;8826;-74
2024/04/11 04:02:42;;;;;;;;;10.50;6.75;;;;;;;;5412901;26;9504;-74
2024/04/11 04:05:13;;;;;;;;;4.25;4.25;;;;;;;;5412751;26;8925;-74
2024/04/11 04:07:38;;;;;;;;;5.00;3.75;;;;;;;;5440679;26;8862;-74
2024/04/11 04:10:03;;;;;;;;;4.50;3.75;;;;;;;;5413163;26;11598;-74
2024/04/11 04:12:29;;;;;;;;;6.25;4.00;;;;;;;;5412317;26;8815;-73
2024/04/11 04:14:54;;;;;;;;;6.00;4.75;;;;;;;;5412585;26;8834;-74
2024/04/11 04:17:19;;;;;;;;;8.00;4.00;;;;;;;;5410672;26;8908;-74
2024/04/11 04:19:45;;;;;;;;;5.00;4.75;;;;;;;;5412572;26;8965;-75
2024/04/11 04:22:13;;;;;;;;;3.00;3.00;;;;;;;;5440562;26;8946;-75
2024/04/11 04:24:39;;;;;;;;;5.25;5.00;;;;;;;;5412827;26;8850;-77
2024/04/11 04:27:04;;;;;;;;;8.00;5.00;;;;;;;;5412564;26;11556;-80
2024/04/11 04:29:31;;;;;;;;;4.00;4.00;;;;;;;;5407488;26;8842;-84
2024/04/11 04:31:56;;;;;;;;;6.25;4.25;;;;;;;;5412175;26;9005;-81
2024/04/11 04:34:22;;;;;;;;;6.25;4.00;;;;;;;;5412521;26;11573;-81
2024/04/11 04:36:48;;;;;;;;;3.75;3.50;;;;;;;;5412368;26;8853;-81
2024/04/11 04:39:16;;;;;;;;;4.25;4.25;;;;;;;;5411826;26;8854;-80
2024/04/11 04:41:42;;;;;;;;;3.75;3.75;;;;;;;;5412292;26;11539;-79
2024/04/11 04:44:07;;;;;;;;;4.00;4.00;;;;;;;;5412192;26;11566;-78
2024/04/11 04:46:33;;;;;;;;;6.00;4.00;;;;;;;;5412128;26;9591;-81
2024/04/11 04:49:00;;;;;;;;;5.75;5.00;;;;;;;;5412885;26;8913;-81
2024/04/11 04:51:26;;;;;;;;;5.00;4.75;;;;;;;;5412228;26;8870;-78
2024/04/11 04:53:52;;;;;;;;;5.25;5.25;;;;;;;;5411912;26;11542;-80
2024/04/11 04:56:19;;;;;;;;;4.75;3.50;;;;;;;;5440113;26;11551;-74
2024/04/11 04:58:44;;;;;;;;;4.00;4.00;;;;;;;;5412216;26;11565;-74
2024/04/11 05:01:11;;;;;;;;;3.00;3.00;;;;;;;;5411686;26;11549;-73
2024/04/11 05:03:38;;;;;;;;;9.00;4.25;;;;;;;;5411745;26;11582;-74
2024/04/11 05:06:03;;;;;;;;;5.00;4.25;;;;;;;;5412254;26;8811;-78
2024/04/11 05:08:32;;;;;;;;;7.00;4.75;;;;;;;;5411747;26;12426;-80
2024/04/11 05:10:57;;;;;;;;;4.25;4.25;;;;;;;;5411513;26;8842;-78
2024/04/11 05:13:26;;;;;;;;;4.50;3.75;;;;;;;;5411147;26;11741;-80
2024/04/11 05:15:56;;;;;;;;;9.50;7.50;;;;;;;;5412053;26;8822;-80
2024/04/11 05:18:21;;;;;;;;;6.25;3.50;;;;;;;;5410863;26;11546;-77
2024/04/11 05:20:47;;;;;;;;;6.25;4.75;;;;;;;;5404072;26;11656;-80
2024/04/11 05:23:14;;;;;;;;;6.00;4.50;;;;;;;;5383821;26;8842;-80
2024/04/11 05:25:39;;;;;;;;;4.75;4.00;;;;;;;;5377192;26;8928;-74
2024/04/11 05:28:07;;;;;;;;;5.75;4.00;;;;;;;;5375025;26;12346;-77
2024/04/11 05:30:33;;;;;;;;;5.00;5.00;;;;;;;;5372023;26;8850;-76
2024/04/11 05:32:59;;;;;;;;;5.50;4.25;;;;;;;;5374670;26;11605;-78
2024/04/11 05:35:25;;;;;;;;;5.25;4.25;;;;;;;;5376559;26;8885;-73
2024/04/11 05:37:53;;;;;;;;;6.00;3.00;;;;;;;;5400559;26;11537;-72
2024/04/11 05:40:21;;;;;;;;;8.00;4.00;;;;;;;;5413831;26;11585;-73
2024/04/11 05:42:47;;;;;;;;;6.25;4.75;;;;;;;;5412305;26;12359;-70
2024/04/11 05:45:17;;;;;;;;;5.75;5.75;;;;;;;;5414937;26;11551;-69
2024/04/11 05:47:46;;;;;;;;;4.75;4.75;;;;;;;;5415169;26;11654;-70
2024/04/11 05:50:15;;;;;;;;;4.25;4.25;;;;;;;;5414893;26;11553;-78
2024/04/11 05:52:40;;;;;;;;;5.00;4.00;;;;;;;;5412795;26;11549;-72
2024/04/11 05:55:07;;;;;;;;;3.00;2.50;;;;;;;;5414901;26;11614;-74
2024/04/11 05:57:32;;;;;;;;;4.00;4.00;;;;;;;;5415520;26;8865;-75
2024/04/11 05:59:57;;;;;;;;;4.50;3.00;;;;;;;;5415050;26;11571;-76
2024/04/11 06:02:22;;;;;;;;;6.00;6.00;;;;;;;;5414994;26;8881;-73
2024/04/11 06:04:48;;;;;;;;;8.00;6.00;;;;;;;;5412361;26;8962;-72
2024/04/11 06:07:16;;;;;;;;;4.00;4.00;;;;;;;;5412217;26;8894;-76
2024/04/11 06:09:41;;;;;;;;;3.75;3.50;;;;;;;;5414694;26;8806;-74
2024/04/11 06:12:10;;;;;;;;;5.00;4.00;;;;;;;;5414556;26;11685;-72
2024/04/11 06:14:36;;;;;;;;;4.00;4.00;;;;;;;;5414568;26;9558;-75
2024/04/11 06:17:01;;;;;;;;;7.25;4.00;;;;;;;;5414304;26;11554;-73
2024/04/11 06:19:26;;;;;;;;;9.50;9.25;;;;;;;;5414635;26;8814;-73
2024/04/11 06:21:53;;;;;;;;;7.50;7.50;;;;;;;;5412679;26;9063;-74
2024/04/11 06:24:21;;;;;;;;;10.75;9.75;;;;;;;;5414594;26;8849;-74
2024/04/11 06:26:47;;;;;;;;;10.00;7.00;;;;;;;;5414083;26;11654;-73
2024/04/11 06:29:14;;;;;;;;;8.00;7.50;;;;;;;;5414687;26;11537;-74
2024/04/11 06:31:39;;;;;;;;;8.00;5.00;;;;;;;;5414458;26;8814;-74
2024/04/11 06:34:05;;;;;;;;;6.50;6.50;;;;;;;;5412491;26;11592;-74
2024/04/11 06:36:33;;;;;;;;;10.25;6.00;;;;;;;;5414266;26;8897;-75
2024/04/11 06:38:59;;;;;;;;;7.25;5.25;;;;;;;;5414305;26;8834;-75
2024/04/11 06:41:24;;;;;;;;;5.75;5.75;;;;;;;;5414584;26;12187;-77
2024/04/11 06:43:52;;;;;;;;;9.50;6.00;;;;;;;;5414092;26;11512;-74
2024/04/11 06:46:18;;;;;;;;;5.25;5.25;;;;;;;;5414266;26;8838;-77
2024/04/11 06:48:44;;;;;;;;;5.00;5.00;;;;;;;;5414269;26;11502;-77
2024/04/11 06:51:09;;;;;;;;;5.00;5.00;;;;;;;;5414744;26;8894;-77
2024/04/11 06:53:36;;;;;;;;;4.00;4.00;;;;;;;;5414114;26;8826;-77
2024/04/11 06:56:07;;;;;;;;;7.25;5.50;;;;;;;;5414658;26;8814;-78
2024/04/11 06:58:34;;;;;;;;;5.75;5.00;;;;;;;;5415227;26;11491;-77
2024/04/11 07:01:00;;;;;;;;;4.50;3.75;;;;;;;;5415708;26;11495;-77
2024/04/11 07:03:26;;;;;;;;;5.50;3.75;;;;;;;;5414294;26;11453;-77
2024/04/11 07:05:52;;;;;;;;;5.75;4.25;;;;;;;;5414887;26;11631;-77
2024/04/11 07:08:19;;;;;;;;;5.00;5.00;;;;;;;;5414882;26;11158;-76
2024/04/11 07:10:46;;;;;;;;;2.50;0.75;;;;;;;;5414358;26;11489;-75
2024/04/11 07:13:12;;;;;;;;;4.75;4.75;;;;;;;;5411994;26;11507;-74
2024/04/11 07:15:42;;;;;;;;;8.50;6.00;;;;;;;;5411738;26;11560;-76
2024/04/11 07:18:14;;;;;;;;;6.50;4.00;;;;;;;;5414147;26;11586;-77
2024/04/11 07:20:39;;;;;;;;;6.00;6.00;;;;;;;;5412193;26;11453;-78
2024/04/11 07:23:05;;;;;;;;;5.50;5.50;;;;;;;;5414038;26;12201;-77
2024/04/11 07:25:35;;;;;;;;;5.00;5.00;;;;;;;;5414098;26;8892;-75
2024/04/11 07:28:00;;;;;;;;;5.00;5.00;;;;;;;;5413632;26;11491;-76
2024/04/11 07:30:27;;;;;;;;;4.75;4.50;;;;;;;;5413515;26;11524;-74
2024/04/11 07:32:52;;;;;;;;;6.00;4.75;;;;;;;;5413491;26;9597;-76
2024/04/11 07:35:17;;;;;;;;;6.00;5.25;;;;;;;;5411422;26;10944;-76
2024/04/11 07:37:43;;;;;;;;;4.00;4.00;;;;;;;;5413296;26;8854;-76
2024/04/11 07:40:27;;;;;;;;;5.00;4.00;;;;;;;;5414032;26;8830;-76
2024/04/11 07:42:55;;;;;;;;;5.00;5.00;;;;;;;;5412871;26;8866;-77
2024/04/11 07:45:21;;;;;;;;;4.00;4.00;;;;;;;;5413431;26;10956;-77
2024/04/11 07:47:47;;;;;;;;;6.00;6.00;;;;;;;;5413612;26;11506;-76
2024/04/11 07:50:13;;;;;;;;;8.50;6.50;;;;;;;;5413676;26;8857;-76
2024/04/11 07:52:39;;;;;;;;;5.00;5.00;;;;;;;;5411511;26;8842;-76
2024/04/11 07:55:04;;;;;;;;;5.25;5.25;;;;;;;;5413476;26;11198;-77
2024/04/11 07:57:30;;;;;;;;;5.00;4.00;;;;;;;;5413596;26;8842;-76
2024/04/11 07:59:56;;;;;;;;;5.00;4.00;;;;;;;;5412980;26;8841;-77
2024/04/11 08:02:21;;;;;;;;;5.00;5.00;;;;;;;;5413359;26;11557;-77
2024/04/11 08:04:47;;;;;;;;;5.75;5.75;;;;;;;;5413223;26;8955;-77
2024/04/11 08:07:12;;;;;;;;;7.00;5.25;;;;;;;;5413175;26;8826;-77
2024/04/11 08:09:55;;;;;;;;;7.25;5.25;;;;;;;;5411104;26;8822;-76
2024/04/11 08:12:20;;;;;;;;;5.00;4.00;;;;;;;;5412668;26;8877;-77
2024/04/11 08:14:45;;;;;;;;;7.00;5.75;;;;;;;;5413178;26;10530;-77
2024/04/11 08:17:13;;;;;;;;;4.50;3.75;;;;;;;;5412940;26;8864;-76
2024/04/11 08:19:39;;;;;;;;;3.00;3.00;;;;;;;;5412778;26;8823;-76
2024/04/11 08:22:05;;;;;;;;;4.00;3.00;;;;;;;;5410558;26;9732;-77
2024/04/11 08:24:30;;;;;;;;;5.00;3.00;;;;;;;;5412749;26;8905;-76
2024/04/11 08:26:55;;;;;;;;;4.33;3.33;;;;;;;;5412618;26;8830;-77
2024/04/11 08:29:23;;;;;;;;;6.00;4.00;;;;;;;;5412447;26;8858;-77
2024/04/11 08:31:49;;;;;;;;;4.00;4.00;;;;;;;;5412531;26;8843;-76
2024/04/11 08:34:14;;;;;;;;;2.75;2.75;;;;;;;;5412528;26;8814;-78
2024/04/11 08:36:39;;;;;;;;;4.00;4.00;;;;;;;;5412547;26;9591;-76
2024/04/11 08:39:04;;;;;;;;;3.00;3.00;;;;;;;;5412427;26;8830;-76
2024/04/11 08:41:30;;;;;;;;;3.33;3.33;;;;;;;;5412467;26;8873;-77
2024/04/11 08:43:56;;;;;;;;;6.00;3.00;;;;;;;;5412280;26;8826;-77
2024/04/11 08:46:22;;;;;;;;;3.33;3.33;;;;;;;;5411954;26;8872;-76
2024/04/11 08:48:47;;;;;;;;;3.00;3.00;;;;;;;;5412324;26;8845;-77
2024/04/11 08:51:19;;;;;;;;;4.00;3.00;;;;;;;;5412528;26;8854;-76
2024/04/11 08:53:46;;;;;;;;;4.00;3.00;;;;;;;;5410884;26;8888;-76
2024/04/11 08:56:13;;;;;;;;;2.00;2.00;;;;;;;;5415549;26;8939;-77
2024/04/11 08:58:41;;;;;;;;;4.00;4.00;;;;;;;;5413714;26;8822;-77
2024/04/11 09:01:10;;;;;;;;;3.75;3.50;;;;;;;;5415633;26;8846;-77
2024/04/11 09:03:35;;;;;;;;;3.00;2.00;;;;;;;;5415786;26;8823;-77
2024/04/11 09:06:01;;;;;;;;;5.00;3.00;;;;;;;;5415881;26;8863;-76
2024/04/11 09:08:26;;;;;;;;;3.00;3.00;;;;;;;;5415392;26;8826;-77
2024/04/11 09:10:54;;;;;;;;;2.00;2.00;;;;;;;;5415505;26;8815;-76
2024/04/11 09:13:22;;;;;;;;;3.00;3.00;;;;;;;;5415531;26;8881;-76
2024/04/11 09:15:56;;;;;;;;;3.60;3.60;;;;;;;;5415109;26;8894;-76
2024/04/11 09:18:24;;;;;;;;;3.00;1.80;;;;;;;;5415432;26;9623;-76
2024/04/11 09:20:58;;;;;;;;;3.00;3.00;;;;;;;;5415515;26;8835;-76
2024/04/11 09:23:24;;;;;;;;;2.80;2.80;;;;;;;;5413246;26;9532;-77
2024/04/11 09:25:49;;;;;;;;;1.00;0.75;;;;;;;;5415487;26;8848;-77
2024/04/11 09:28:14;;;;;;;;;3.25;3.25;;;;;;;;5415528;26;8827;-77
2024/04/11 09:30:39;;;;;;;;;2.75;2.75;;;;;;;;5415162;26;8842;-77
2024/04/11 09:33:10;;;;;;;;;4.00;2.00;;;;;;;;5415399;26;8814;-77
2024/04/11 09:35:40;;;;;;;;;3.00;3.00;;;;;;;;5415314;26;8819;-77
2024/04/11 09:38:08;;;;;;;;;3.00;3.00;;;;;;;;5415278;26;8858;-77
2024/04/11 09:40:34;;;;;;;;;1.80;1.80;;;;;;;;5414926;26;8807;-78
2024/04/11 09:43:04;;;;;;;;;2.25;2.25;;;;;;;;5415625;26;8889;-77
2024/04/11 09:45:32;;;;;;;;;3.40;3.20;;;;;;;;5415137;26;8830;-77
2024/04/11 09:47:58;;;;;;;;;4.00;2.80;;;;;;;;5413004;26;8822;-77
2024/04/11 09:50:24;;;;;;;;;3.50;3.50;;;;;;;;5430304;21;8926;-68
2024/04/11 09:52:53;;;;;;;;;2.60;2.60;;;;;;;;5412843;26;8842;-69
2024/04/11 09:55:18;;;;;;;;;3.00;3.00;;;;;;;;5412737;26;8823;-67
2024/04/11 09:57:46;;;;;;;;;3.00;3.00;;;;;;;;5412694;26;8940;-69
2024/04/11 10:02:58;;;;;;;;;1.00;1.00;;;;;;;;5412653;26;8790;-69
2024/04/11 10:05:34;;;;;;;;;3.20;3.00;;;;;;;;5412443;26;8861;-67
2024/04/11 10:08:01;;;;;;;;;3.00;3.00;;;;;;;;5412958;26;8823;-69
2024/04/11 10:10:27;;;;;;;;;3.00;3.00;;;;;;;;5412979;26;8833;-69
2024/04/11 10:12:54;;;;;;;;;4.00;3.00;;;;;;;;5412729;26;8854;-69
2024/04/11 10:15:21;;;;;;;;;4.00;4.00;;;;;;;;5412714;26;8947;-69
2024/04/11 10:18:06;;;;;;;;;3.00;3.00;;;;;;;;5412692;26;8925;-68
2024/04/11 10:21:02;;;;;;;;;3.00;3.00;;;;;;;;5412821;26;8807;-69
2024/04/11 10:23:29;;;;;;;;;4.00;4.00;;;;;;;;5413069;26;8854;-68
2024/04/11 10:25:56;;;;;;;;;4.00;4.00;;;;;;;;5413239;26;8871;-68
2024/04/11 10:28:37;;;;;;;;;4.75;4.00;;;;;;;;5412291;26;8827;-68
2024/04/11 10:31:08;;;;;;;;;4.00;4.00;;;;;;;;5412876;26;8900;-68
2024/04/11 10:33:44;;;;;;;;;4.25;4.25;;;;;;;;5413028;26;8838;-68
2024/04/11 10:36:09;;;;;;;;;5.00;5.00;;;;;;;;5413100;26;8840;-68
2024/04/11 10:38:35;;;;;;;;;5.33;4.00;;;;;;;;5412175;26;8849;-69
2024/04/11 10:41:01;;;;;;;;;4.33;4.33;;;;;;;;5412693;26;8846;-68
2024/04/11 10:43:27;;;;;;;;;4.50;4.00;;;;;;;;5412475;26;8865;-69
2024/04/11 10:45:55;;;;;;;;;4.50;4.50;;;;;;;;5412495;26;8846;-68
2024/04/11 10:48:24;;;;;;;;;5.25;4.75;;;;;;;;5412532;26;8826;-68
2024/04/11 10:50:49;;;;;;;;;4.00;4.00;;;;;;;;5412315;26;8854;-68
2024/04/11 10:53:20;;;;;;;;;5.00;4.00;;;;;;;;5410186;26;8814;-67
2024/04/11 10:55:46;;;;;;;;;3.25;3.25;;;;;;;;5410288;26;8848;-68
2024/04/11 10:58:22;;;;;;;;;4.75;4.75;;;;;;;;5412523;26;8799;-68
2024/04/11 11:06:13;;;;;;;;;4.25;4.25;;;;;;;;5412232;26;8782;-68
2024/04/11 11:08:42;;;;;;;;;5.75;5.75;;;;;;;;5411951;26;8806;-67
2024/04/11 11:11:11;;;;;;;;;5.50;4.75;;;;;;;;5412227;26;8822;-68
2024/04/11 11:13:38;;;;;;;;;6.50;5.00;;;;;;;;5412566;26;8806;-68
2024/04/11 11:16:05;;;;;;;;;9.75;8.75;;;;;;;;5411091;26;8831;-69
2024/04/11 11:18:33;;;;;;;;;4.75;4.25;;;;;;;;5410192;26;8795;-69
2024/04/11 11:21:00;;;;;;;;;5.00;5.00;;;;;;;;5411867;26;8844;-68
2024/04/11 11:23:26;;;;;;;;;4.50;3.75;;;;;;;;5411553;26;8873;-69
2024/04/11 11:25:53;;;;;;;;;5.00;5.00;;;;;;;;5409743;26;8846;-69
2024/04/11 11:28:21;;;;;;;;;5.00;4.50;;;;;;;;5409693;26;8941;-68
2024/04/11 11:30:48;;;;;;;;;5.00;5.00;;;;;;;;5409603;26;8834;-69
2024/04/11 11:33:17;;;;;;;;;4.75;4.00;;;;;;;;5411558;26;8815;-68
2024/04/11 11:35:43;;;;;;;;;6.00;6.00;;;;;;;;5411798;26;8921;-68
2024/04/11 11:38:08;;;;;;;;;4.33;4.00;;;;;;;;5411723;26;8819;-69
2024/04/11 11:40:39;;;;;;;;;6.00;5.33;;;;;;;;5411613;26;8842;-69
2024/04/11 11:43:06;;;;;;;;;6.75;5.00;;;;;;;;5412031;26;8881;-67
2024/04/11 11:45:44;;;;;;;;;6.75;5.75;;;;;;;;5411988;26;8818;-68
2024/04/11 11:48:13;;;;;;;;;5.25;5.25;;;;;;;;5409585;26;8901;-68
2024/04/11 11:50:39;;;;;;;;;6.00;6.00;;;;;;;;5411807;26;8818;-68
2024/04/11 11:55:57;;;;;;;;;5.00;5.00;;;;;;;;5411773;26;8778;-67
2024/04/11 11:58:23;;;;;;;;;4.75;4.25;;;;;;;;5411340;26;8862;-68
2024/04/11 12:00:59;;;;;;;;;6.25;6.25;;;;;;;;5409277;26;8858;-68
2024/04/11 12:03:24;;;;;;;;;6.25;5.00;;;;;;;;5411600;26;8818;-68
2024/04/11 12:05:52;;;;;;;;;6.00;5.00;;;;;;;;5411329;26;8823;-68
2024/04/11 12:08:19;;;;;;;;;7.00;4.00;;;;;;;;5411159;26;8831;-68
2024/04/11 12:13:34;;;;;;;;;5.00;4.00;;;;;;;;5410671;26;8790;-68
2024/04/11 12:15:59;;;;;;;;;6.00;4.75;;;;;;;;5409220;26;8862;-68
2024/04/11 12:18:25;;;;;;;;;4.00;4.00;;;;;;;;5411534;26;8838;-68
2024/04/11 12:20:57;;;;;;;;;5.00;5.00;;;;;;;;5410825;26;8838;-68
2024/04/11 12:23:22;;;;;;;;;5.00;5.00;;;;;;;;5411039;26;8810;-68
2024/04/11 12:25:50;;;;;;;;;4.00;4.00;;;;;;;;5410800;26;8861;-69
2024/04/11 12:28:19;;;;;;;;;5.50;5.00;;;;;;;;5412156;26;8869;-68
2024/04/11 12:30:46;;;;;;;;;6.00;5.00;;;;;;;;5414101;26;8807;-67
2024/04/11 12:33:11;;;;;;;;;4.25;4.25;;;;;;;;5414191;26;9583;-69
2024/04/11 12:35:46;;;;;;;;;4.67;4.67;;;;;;;;5414455;26;8929;-67
2024/04/11 12:38:16;;;;;;;;;5.00;5.00;;;;;;;;5414265;26;8857;-70
2024/04/11 12:40:42;;;;;;;;;6.00;6.00;;;;;;;;5414192;26;8881;-69
2024/04/11 12:43:07;;;;;;;;;6.00;6.00;;;;;;;;5414306;26;8906;-68
2024/04/11 12:45:34;;;;;;;;;6.00;6.00;;;;;;;;5414609;26;8834;-67
2024/04/11 12:48:05;;;;;;;;;4.50;4.50;;;;;;;;5414475;26;8842;-67
2024/04/11 12:50:35;;;;;;;;;6.25;6.00;;;;;;;;5414583;26;8819;-67
2024/04/11 12:53:10;;;;;;;;;6.75;6.00;;;;;;;;5411905;26;8803;-67
2024/04/11 12:55:38;;;;;;;;;14.00;11.67;;;;;;;;5411940;26;9113;-63
2024/04/11 12:58:06;;;;;;;;;5.33;5.33;;;;;;;;5413927;26;8981;-62
2024/04/11 13:01:18;;;;;;;;;9.00;7.00;;;;;;;;5414136;26;9209;-62
2024/04/11 13:03:34;;;;;;;;;12.00;9.00;;;;;;;;5408134;26;9014;-61
2024/04/11 13:06:00;;;;;;;;;6.00;6.00;;;;;;;;5414066;26;8983;-61
2024/04/11 13:08:29;;;;;;;;;8.00;7.00;;;;;;;;5413439;26;8986;-62
2024/04/11 13:10:55;;;;;;;;;7.00;6.67;;;;;;;;5413676;26;8846;-62
2024/04/11 13:13:23;;;;;;;;;8.67;7.67;;;;;;;;5413673;26;9170;-63
2024/04/11 13:15:49;;;;;;;;;7.00;6.00;;;;;;;;5413819;26;8838;-63
2024/04/11 13:18:28;;;;;;;;;9.67;9.67;;;;;;;;5413547;26;9045;-62
2024/04/11 13:20:55;;;;;;;;;9.67;6.67;;;;;;;;5411755;26;9335;-63
2024/04/11 13:23:21;;;;;;;;;7.00;7.00;;;;;;;;5411486;26;9142;-63
2024/04/11 13:25:47;;;;;;;;;6.67;6.00;;;;;;;;5411423;26;9075;-63
2024/04/11 13:28:13;;;;;;;;;6.33;6.00;;;;;;;;5412747;26;8876;-63
2024/04/11 13:30:42;;;;;;;;;8.33;8.33;;;;;;;;5413385;26;8918;-62
2024/04/11 13:33:14;;;;;;;;;7.33;7.33;;;;;;;;5414035;26;8885;-66
2024/04/11 13:35:48;;;;;;;;;9.67;7.67;;;;;;;;5414039;26;9483;-63
2024/04/11 13:38:14;;;;;;;;;8.00;8.00;;;;;;;;5413077;26;9337;-62
2024/04/11 13:43:28;;;;;;;;;6.67;6.67;;;;;;;;5413727;26;11610;-62
2024/04/11 13:46:02;;;;;;;;;9.33;8.00;;;;;;;;5413587;26;9261;-63
2024/04/11 13:48:30;;;;;;;;;9.33;8.00;;;;;;;;5413743;26;9192;-66
2024/04/11 13:50:58;;;;;;;;;6.67;6.33;;;;;;;;5405310;26;9187;-64
2024/04/11 13:53:27;;;;;;;;;7.00;6.00;;;;;;;;5401615;26;9020;-65
2024/04/11 13:55:56;;;;;;;;;9.00;8.33;;;;;;;;5387283;26;9716;-64
2024/04/11 13:58:21;;;;;;;;;8.67;8.67;;;;;;;;5385250;26;9106;-64
2024/04/11 14:01:02;;;;;;;;;7.00;6.00;;;;;;;;5402959;26;9460;-65
2024/04/11 14:03:44;;;;;;;;;7.67;6.67;;;;;;;;5398464;26;9028;-64
2024/04/11 14:08:39;;;;;;;;;6.00;6.00;;;;;;;;5393543;26;9132;-63
2024/04/11 14:11:05;;;;;;;;;6.00;5.00;;;;;;;;5402709;26;9001;-66
2024/04/11 14:13:41;;;;;;;;;7.67;7.67;;;;;;;;5400038;26;9006;-63
2024/04/11 14:16:08;;;;;;;;;6.67;6.00;;;;;;;;5375415;26;9048;-67
2024/04/11 14:18:34;;;;;;;;;7.00;7.00;;;;;;;;5377523;26;9146;-62
2024/04/11 14:21:18;;;;;;;;;8.00;7.67;;;;;;;;5384387;26;9247;-63
2024/04/11 14:24:04;;;;;;;;;9.00;7.00;;;;;;;;5381979;26;8847;-66
2024/04/11 14:26:51;;;;;;;;;7.00;6.00;;;;;;;;5376990;26;9091;-65
2024/04/11 14:29:23;;;;;;;;;5.67;5.67;;;;;;;;5377023;26;9146;-65
2024/04/11 14:31:49;;;;;;;;;7.33;7.33;;;;;;;;5377150;26;9082;-64
2024/04/11 14:39:34;;;;;;;;;7.00;6.67;;;;;;;;5410975;26;9384;-69
2024/04/11 14:42:06;;;;;;;;;8.00;5.67;;;;;;;;5423356;26;9493;-68
2024/04/11 14:44:44;;;;;;;;;9.33;7.33;;;;;;;;5398450;26;9340;-68
2024/04/11 14:47:10;;;;;;;;;6.00;6.00;;;;;;;;5429134;26;9596;-68
2024/04/11 14:49:36;;;;;;;;;7.33;6.00;;;;;;;;5397108;26;9085;-71
2024/04/11 14:52:04;;;;;;;;;6.33;6.33;;;;;;;;5399818;26;8995;-69
2024/04/11 14:54:35;;;;;;;;;9.00;8.00;;;;;;;;5412309;26;8830;-69
2024/04/11 14:57:08;;;;;;;;;7.00;6.33;;;;;;;;5407581;26;9195;-72
2024/04/11 14:59:42;;;;;;;;;6.67;6.67;;;;;;;;5412019;26;9096;-73
2024/04/11 15:02:11;;;;;;;;;6.00;6.00;;;;;;;;5403661;26;9280;-73
2024/04/11 15:04:38;;;;;;;;;6.00;6.00;;;;;;;;5375711;26;9279;-73
2024/04/11 15:07:10;;;;;;;;;8.00;7.00;;;;;;;;5376541;26;9067;-71
2024/04/11 15:09:43;;;;;;;;;6.67;6.33;;;;;;;;5375734;26;9255;-72
2024/04/11 15:12:13;;;;;;;;;5.67;5.00;;;;;;;;5376566;26;9175;-70
2024/04/11 15:14:38;;;;;;;;;6.00;6.00;;;;;;;;5381499;26;9178;-71
2024/04/11 15:17:18;;;;;;;;;6.00;6.00;;;;;;;;5393198;26;9107;-73
2024/04/11 15:19:56;;;;;;;;;6.67;6.67;;;;;;;;5424662;26;8846;-70